Sao Paulo, Brazil
Current Conditions -  °F | °C
As of 7:00 PM on Wednesday 22 Oct 2014 (Local Time) from SBMT Reporting Station
Overcast Overcast  
Wind Chill: 17°   Ceiling: 1300
Heat Index: 17°   Visibility: 6mi
Dew Point: 14°   Wind: 13mph
Humidity: 82%   Direction: 140°SE
Pressure: 30.18"   Gusts: NA
Location:  23.53°S, 46.63°W
Report Text: SBMT 222100Z 14011KT 9999 OVC013 17/14 Q1022
Loading
Personal Weather Stations






























Interactive Weather Map
Tropical Storm Tracking
New forecast layout! Learn more

10-Day Weather Forecast

Advertisements
Track Severe Weather on mobile